Kezdőlap
METAR-TAF:

METAR-TAF

Repülőterek :

Exeter, Anglia

földrajzi szélesség: 50-44N, földrajzi hosszúság: 003-25W, magasság: 30 m

Jelenlegi meteorológiai megfigyelések

A jelentés 39 perccel ezelõtt készült, 14:50 UTC
Nyugat-délnyugati szél 11 kt
Hőmérséklet 11°C
Páratartalom 94%
Légköri nyomás 1005 hPa
Látótávolság 10 km, vagy több
Szórványos felhőzet 1000 lábon
enyhe záporok

METAR: EGTE 061450Z 25011KT 9999 -SHRA SCT010 11/10 Q1005

Idő: 15:29 (15:29 UTC)

Előrejelzés

A jelentés 1 órával és 32 perccel ezelõtt készült, 13:57 UTC
Az előrejelzés 06-én 15 óra UTC és 06-én 24 óra UTC között érvényes
Délnyugati szél 13 kt
Látótávolság 10 km, vagy több
Kevés felhő 1200 lábon
Szórványos felhőzet 2500 lábon
06-én 15 óra UTC és 06-én 18 óra UTC között fokozatosan kialakuló
Nyugati szél 9 kt

TAF: EGTE 061357Z 0615/0624 22013KT 9999 FEW012 SCT025 BECMG 0615/0618 28009KT

Meteorológiai megfigyelések és előrejelzések több, mint 4000 repülőtéren (METAR és TAF jelentéseket).

A térképen piros és sárga pontok jelzik az elérhető meteorológiai állomásokat.

Mozgassa az egeret a pont fölött, hogy megjelenjen az állomás neve.

Azután kattintson az időjárási megfigyelések és előrejelzések megtekintéséhez.

A térkép megváltoztatása: kattintson a fekete keresztel jelölt zöld gombra ráközelítéshez, a vonallal jelölt zöld gombra távolításhoz, vagy a zöld nyilakra a szomszédos térképek eléréséhez.


METAR-TAF: